LPFR Airport Information

Runway Information
Runway 10 Length 8169 ft width 148 ft
Elevation 24 ft Threshold 148 ft Heading 100
Runway 28 Length 8169 ft Width 148 ft
Elevation 18 ft Threshold 148 ft Heading 280
Airport Frequencies
Type APP Name APP Frequency 119.4 MHZ
Type ATIS Name ATIS Frequency 124.2 MHZ
Type GND Name GND Frequency 118.575 MHZ
Type TWR Name TWR Frequency 118.2 MHZ
Airport Navaids
Type NDB Name Faro Frequency 332 KHZ
Type VOR-DME Name Faro Frequency 112800 KHZ
Airport Weather Information & NOTAM
ADDS - METARS form results

(0621 UTC 24 May 2018)
 
METAR text: LPFR 240600Z 01005KT 9999 -RA FEW020 FEW025TCU 17/16 Q1012
Conditions at: LPFR (FARO , PT) observed 0600 UTC 24 May 2018
Temperature: 17.0°C (63°F)
Dewpoint: 16.0°C (61°F) [RH = 94%]
Pressure (altimeter): 29.88 inches Hg (1012.0 mb)
Winds: from the N (10 degrees) at 6 MPH (5 knots; 2.6 m/s)
Visibility: 6 or more miles (10+ km)
Ceiling: at least 12,000 feet AGL
Clouds: few clouds at 2000 feet AGL
few clouds at 2500 feet AGL
Weather: -RA  (light rain)

METAR text: LPFR 240530Z 03004KT 9999 -RA FEW020 FEW025CB 16/16 Q1012 RETSRA
Conditions at: LPFR (FARO , PT) observed 0530 UTC 24 May 2018
Temperature: 16.0°C (61°F)
Dewpoint: 16.0°C (61°F) [RH = 100%]
Pressure (altimeter): 29.88 inches Hg (1012.0 mb)
Winds: from the NNE (30 degrees) at 5 MPH (4 knots; 2.1 m/s)
Visibility: 6 or more miles (10+ km)
Ceiling: at least 12,000 feet AGL
Clouds: few clouds at 2000 feet AGL
few clouds at 2500 feet AGL
Weather: -RA  (light rain)